Horton, Kansas
Current Conditions -  °F | °C
As of 5:18 PM on Friday 19 Dec 2014 (Local Time) from KFNB Reporting Station
Overcast Overcast  
Wind Chill: 26°   Ceiling: 1000
Heat Index: 31°   Visibility: 10mi
Dew Point: 27°   Wind: 5mph
Humidity: 85%   Direction: 170°S
Pressure: 30.19"   Gusts: NA
Location:  39.66°N, 95.53°W
Report Text: KFNB 192318Z AUTO 17004KT 10SM BKN010 OVC016 M01/M03 A3019 RMK AO2 CIG 008V012 T10061028
Loading
Personal Weather Stations






























Interactive Weather Map New forecast layout! Learn more

10-Day Weather Forecast

Advertisements
Track Severe Weather on mobile